Time;durP1;ratioP1;P1;durP2;ratioP2;P2;SDS_P1;SDS_P2;PMS_P1;PMS_P2;Temp;Humidity;BMP_temperature;BMP_pressure;BME280_temperature;BME280_humidity;BME280_pressure;Samples;Min_cycle;Max_cycle;Signal;HPM_P1;HPM_P2
2022/08/05 00:00:20;;;;;;;;;;;;;;;27.37;42.54;98585.66;2619660;47;20446;-68
2022/08/05 00:02:50;;;;;;;;;;;;;;;27.24;42.98;98594.66;2619864;54;20426;-68
2022/08/05 00:05:20;;;;;;;;;;;;;;;27.26;43.38;98587.00;2619909;54;19939;-67
2022/08/05 00:08:10;;;;;;;;;;;;;;;27.36;42.59;98586.78;2621950;31;20441;-68
2022/08/05 00:11:03;;;;;;;;;;;;;;;27.43;42.94;98614.28;2619448;54;19970;-68
2022/08/05 00:13:48;;;;;;;;;;;;;;;27.48;43.20;98616.09;2620029;39;20358;-67
2022/08/05 00:16:21;;;;;;;;;;;;;;;27.40;43.10;98615.72;2619386;54;19939;-67
2022/08/05 00:19:05;;;;;;;;;;;;;;;27.51;42.80;98597.25;2619025;54;19947;-65
2022/08/05 00:21:34;;;;;;;;;;;;;;;27.49;43.01;98604.91;2619023;54;19946;-66
2022/08/05 00:24:05;;;;;;;;;;;;;;;27.38;43.32;98608.97;2619028;54;20034;-68
2022/08/05 00:26:46;;;;;;;;;;;;;;;27.46;43.26;98612.88;2618836;54;20033;-67
2022/08/05 00:29:20;;;;;;;;;;;;;;;27.40;43.61;98606.78;2619406;54;19969;-67
2022/08/05 00:31:53;;;;;;;;;;;;;;;27.24;43.51;98589.25;2620343;54;20414;-66
2022/08/05 00:34:40;;;;;;;;;;;;;;;27.26;43.48;98576.94;2618571;54;20462;-68
2022/08/05 00:37:29;;;;;;;;;;;;;;;27.15;44.21;98573.69;2618766;54;20003;-67
2022/08/05 00:40:19;;;;;;;;;;;;;;;27.16;44.66;98561.72;2618439;54;20033;-67
2022/08/05 00:42:59;;;;;;;;;;;;;;;27.00;44.22;98556.94;2619233;54;19939;-66
2022/08/05 00:45:29;;;;;;;;;;;;;;;26.99;44.51;98549.91;2618907;54;19947;-68
2022/08/05 00:48:08;;;;;;;;;;;;;;;26.82;45.27;98526.13;2618667;54;20430;-68
2022/08/05 00:50:38;;;;;;;;;;;;;;;26.70;45.67;98515.00;2619240;54;20441;-67
2022/08/05 00:53:12;;;;;;;;;;;;;;;26.78;45.00;98489.88;2618428;54;19939;-66
2022/08/05 00:56:01;;;;;;;;;;;;;;;26.79;45.34;98478.75;2619178;54;19983;-66
2022/08/05 00:58:33;;;;;;;;;;;;;;;26.75;45.56;98457.97;2617988;47;19947;-66
2022/08/05 01:01:05;;;;;;;;;;;;;;;26.75;45.52;98452.56;2618890;54;19973;-67
2022/08/05 01:03:37;;;;;;;;;;;;;;;26.78;45.53;98454.63;2618742;54;20042;-66
2022/08/05 01:06:07;;;;;;;;;;;;;;;26.77;45.23;98459.25;2618466;54;20439;-66
2022/08/05 01:08:43;;;;;;;;;;;;;;;26.83;45.53;98466.19;2618908;54;19953;-67
2022/08/05 01:11:17;;;;;;;;;;;;;;;26.85;45.34;98466.66;2619328;54;19946;-67
2022/08/05 01:14:05;;;;;;;;;;;;;;;26.88;45.25;98447.06;2619076;54;19950;-67
2022/08/05 01:16:41;;;;;;;;;;;;;;;26.82;45.13;98445.59;2618197;54;19939;-67
2022/08/05 01:19:21;;;;;;;;;;;;;;;26.79;45.25;98469.81;2618145;47;19985;-66
2022/08/05 01:22:15;;;;;;;;;;;;;;;26.80;45.29;98484.97;2619907;54;19939;-67
2022/08/05 01:25:03;;;;;;;;;;;;;;;26.80;45.13;98496.63;2619706;54;19954;-67
2022/08/05 01:27:56;;;;;;;;;;;;;;;26.97;45.08;98503.28;2618922;54;19958;-67
2022/08/05 01:30:27;;;;;;;;;;;;;;;27.06;45.21;98502.25;2619800;54;19939;-67
2022/08/05 01:33:05;;;;;;;;;;;;;;;27.03;44.87;98493.94;2619868;54;19939;-67
2022/08/05 01:35:39;;;;;;;;;;;;;;;27.03;45.01;98497.44;2619952;54;19953;-66
2022/08/05 01:38:22;;;;;;;;;;;;;;;27.00;45.35;98495.34;2619794;54;19939;-67
2022/08/05 01:40:57;;;;;;;;;;;;;;;27.02;45.29;98508.59;2619625;47;19945;-66
2022/08/05 01:43:29;;;;;;;;;;;;;;;27.06;45.17;98526.66;2619965;54;19946;-67
2022/08/05 01:45:59;;;;;;;;;;;;;;;27.05;44.93;98530.47;2620815;39;20353;-65
2022/08/05 01:48:45;;;;;;;;;;;;;;;27.02;45.21;98552.78;2619990;54;20002;-67
2022/08/05 01:51:19;;;;;;;;;;;;;;;27.01;45.24;98567.47;2620010;54;19939;-67
2022/08/05 01:53:51;;;;;;;;;;;;;;;26.98;45.43;98581.63;2619832;54;19947;-67
2022/08/05 01:56:28;;;;;;;;;;;;;;;26.97;45.40;98582.75;2619436;54;19951;-68
2022/08/05 01:59:23;;;;;;;;;;;;;;;26.89;45.13;98559.06;2619155;54;19950;-66
2022/08/05 02:01:56;;;;;;;;;;;;;;;26.74;45.37;98548.53;2620138;54;19938;-66
2022/08/05 02:04:34;;;;;;;;;;;;;;;26.67;46.76;98554.41;2620813;54;19947;-65
2022/08/05 02:07:04;;;;;;;;;;;;;;;26.50;46.89;98536.06;2617723;54;19951;-68
2022/08/05 02:09:35;;;;;;;;;;;;;;;26.53;47.51;98521.88;2618234;54;19953;-67
2022/08/05 02:12:08;;;;;;;;;;;;;;;26.47;48.46;98512.28;2617803;47;19954;-68
2022/08/05 02:14:44;;;;;;;;;;;;;;;26.46;48.22;98507.97;2618037;39;20349;-69
2022/08/05 02:17:19;;;;;;;;;;;;;;;26.39;48.32;98518.38;2618081;54;19947;-69
2022/08/05 02:20:12;;;;;;;;;;;;;;;26.45;48.48;98525.31;2618331;54;19943;-69
2022/08/05 02:22:49;;;;;;;;;;;;;;;26.41;49.44;98532.41;2618619;39;20295;-68
2022/08/05 02:25:21;;;;;;;;;;;;;;;26.35;49.77;98523.59;2618784;39;20319;-69
2022/08/05 02:27:52;;;;;;;;;;;;;;;26.31;49.92;98508.25;2618449;39;20353;-69
2022/08/05 02:30:34;;;;;;;;;;;;;;;26.11;51.11;98496.72;2618613;39;20335;-68
2022/08/05 02:33:04;;;;;;;;;;;;;;;25.99;51.65;98518.09;2617966;54;19938;-67
2022/08/05 02:35:36;;;;;;;;;;;;;;;25.97;52.43;98523.00;2618696;39;20331;-68
2022/08/05 02:38:26;;;;;;;;;;;;;;;25.94;52.93;98504.66;2618010;54;19939;-67
2022/08/05 02:41:05;;;;;;;;;;;;;;;25.97;53.26;98514.88;2617806;47;19943;-67
2022/08/05 02:43:47;;;;;;;;;;;;;;;25.88;53.78;98524.78;2618167;54;19961;-67
2022/08/05 02:46:38;;;;;;;;;;;;;;;25.87;54.09;98520.47;2617823;54;20054;-67
2022/08/05 02:49:27;;;;;;;;;;;;;;;25.78;54.41;98539.31;2618234;54;19950;-67
2022/08/05 02:52:05;;;;;;;;;;;;;;;25.85;54.21;98566.81;2619831;54;20454;-67
2022/08/05 02:54:35;;;;;;;;;;;;;;;25.88;53.99;98571.66;2624869;54;19946;-67
2022/08/05 02:57:11;;;;;;;;;;;;;;;25.90;53.98;98563.22;2624864;54;19950;-67
2022/08/05 03:00:01;;;;;;;;;;;;;;;25.74;55.23;98607.88;2623656;54;19950;-68
2022/08/05 03:02:35;;;;;;;;;;;;;;;25.53;56.32;98650.72;2617817;47;19943;-68
2022/08/05 03:05:06;;;;;;;;;;;;;;;25.28;57.59;98687.88;2617541;54;19953;-67
2022/08/05 03:07:36;;;;;;;;;;;;;;;24.84;59.64;98705.16;2617784;54;19947;-69
2022/08/05 03:10:26;;;;;;;;;;;;;;;24.39;61.36;98722.66;2617984;54;19946;-68
2022/08/05 03:12:55;;;;;;;;;;;;;;;24.15;62.14;98720.69;2618037;54;19957;-68
2022/08/05 03:15:23;;;;;;;;;;;;;;;24.15;62.33;98684.75;2618297;54;19953;-69
2022/08/05 03:17:56;;;;;;;;;;;;;;;24.03;62.28;98673.53;2618025;54;19946;-68
2022/08/05 03:20:27;;;;;;;;;;;;;;;24.06;62.18;98660.28;2618071;54;19947;-69
2022/08/05 03:22:58;;;;;;;;;;;;;;;24.07;62.25;98661.88;2617919;54;20514;-69
2022/08/05 03:25:28;;;;;;;;;;;;;;;24.07;61.89;98653.78;2618425;39;20364;-68
2022/08/05 03:28:17;;;;;;;;;;;;;;;24.10;61.89;98657.81;2617240;54;19947;-68
2022/08/05 03:30:48;;;;;;;;;;;;;;;24.08;61.09;98674.28;2618062;54;20030;-68
2022/08/05 03:33:22;;;;;;;;;;;;;;;24.13;61.30;98690.47;2617583;47;19943;-69
2022/08/05 03:36:00;;;;;;;;;;;;;;;24.12;61.16;98694.22;2617376;54;19954;-69
2022/08/05 03:38:34;;;;;;;;;;;;;;;24.14;60.90;98691.25;2617982;54;19938;-69
2022/08/05 03:41:05;;;;;;;;;;;;;;;;;;2617356;47;19981;-69
2022/08/05 03:43:39;;;;;;;;;;;;;;;23.86;61.84;98703.66;2617424;47;19966;-69
2022/08/05 03:46:28;;;;;;;;;;;;;;;23.68;62.53;98719.44;2617850;54;19979;-69
2022/08/05 03:49:03;;;;;;;;;;;;;;;23.68;62.80;98724.81;2617325;54;19947;-68
2022/08/05 03:51:36;;;;;;;;;;;;;;;23.76;63.04;98728.81;2617388;54;19946;-67
2022/08/05 03:54:31;;;;;;;;;;;;;;;23.73;63.63;98745.56;2617636;39;20358;-67
2022/08/05 03:57:24;;;;;;;;;;;;;;;23.60;64.17;98744.28;2617335;46;20054;-67
2022/08/05 03:59:58;;;;;;;;;;;;;;;23.46;64.92;98748.66;2618510;39;20330;-67
2022/08/05 04:02:31;;;;;;;;;;;;;;;23.41;64.39;98740.59;2598915;54;19950;-69
2022/08/05 04:05:11;;;;;;;;;;;;;;;23.26;64.78;98744.16;2617816;54;19946;-69
2022/08/05 04:07:41;;;;;;;;;;;;;;;23.18;65.07;98744.75;2617750;54;19946;-68
2022/08/05 04:10:27;;;;;;;;;;;;;;;23.20;65.06;98739.91;2618673;54;20464;-68
2022/08/05 04:13:06;;;;;;;;;;;;;;;23.22;64.50;98759.28;2618534;54;19951;-68
2022/08/05 04:15:36;;;;;;;;;;;;;;;23.20;64.42;98764.97;2620627;54;19943;-67
2022/08/05 04:18:23;;;;;;;;;;;;;;;23.18;64.82;98764.41;2621658;54;19950;-68
2022/08/05 04:20:59;;;;;;;;;;;;;;;23.26;64.28;98762.25;2621334;54;19969;-67
2022/08/05 04:23:30;;;;;;;;;;;;;;;23.20;64.19;98773.06;2620720;54;19955;-68
2022/08/05 04:26:20;;;;;;;;;;;;;;;23.14;64.63;98776.84;2620991;54;19951;-67
2022/08/05 04:28:50;;;;;;;;;;;;;;;23.18;64.41;98769.81;2619939;47;19939;-67
2022/08/05 04:31:20;;;;;;;;;;;;;;;23.16;64.33;98769.28;2620922;54;19938;-67
2022/08/05 04:33:49;;;;;;;;;;;;;;;23.26;63.87;98778.41;2620766;54;19947;-68
2022/08/05 04:36:41;;;;;;;;;;;;;;;23.21;64.23;98792.75;2619664;54;19977;-68
2022/08/05 04:39:14;;;;;;;;;;;;;;;23.24;64.01;98792.19;2619303;54;19946;-68
2022/08/05 04:41:43;;;;;;;;;;;;;;;23.27;64.24;98767.38;2619682;54;19970;-67
2022/08/05 04:44:16;;;;;;;;;;;;;;;23.38;63.79;98768.91;2622044;54;19951;-66
2022/08/05 04:46:58;;;;;;;;;;;;;;;23.53;63.71;98781.53;2621265;47;19946;-68
2022/08/05 04:49:27;;;;;;;;;;;;;;;23.49;63.43;98788.56;2619467;54;19946;-67
2022/08/05 04:52:19;;;;;;;;;;;;;;;23.54;63.56;98783.16;2617339;54;19946;-67
2022/08/05 04:54:48;;;;;;;;;;;;;;;23.47;63.25;98783.47;2620512;54;19939;-67
2022/08/05 04:57:18;;;;;;;;;;;;;;;23.49;63.54;98783.97;2622729;47;19947;-68
2022/08/05 04:59:48;;;;;;;;;;;;;;;23.54;63.65;98769.66;2623094;54;19946;-68
2022/08/05 05:02:17;;;;;;;;;;;;;;;23.36;63.92;98768.41;2622234;54;19938;-68
2022/08/05 05:05:07;;;;;;;;;;;;;;;23.29;64.58;98783.28;2617421;54;19950;-68
2022/08/05 05:08:01;;;;;;;;;;;;;;;23.43;64.69;98776.19;2617669;54;19954;-66
2022/08/05 05:10:31;;;;;;;;;;;;;;;23.44;64.50;98777.81;2617835;54;19947;-67
2022/08/05 05:13:01;;;;;;;;;;;;;;;23.55;64.63;98790.16;2617709;54;19947;-67
2022/08/05 05:15:32;;;;;;;;;;;;;;;23.62;63.89;98781.75;2618305;39;20385;-68
2022/08/05 05:18:22;;;;;;;;;;;;;;;23.69;64.31;98776.91;2616709;54;19943;-68
2022/08/05 05:21:02;;;;;;;;;;;;;;;23.75;64.03;98758.78;2616970;54;20035;-67
2022/08/05 05:23:36;;;;;;;;;;;;;;;23.59;64.42;98764.22;2617684;54;19947;-69
2022/08/05 05:26:25;;;;;;;;;;;;;;;23.63;64.30;98759.09;2617428;54;19954;-67
2022/08/05 05:29:01;;;;;;;;;;;;;;;23.60;64.59;98752.38;2617602;54;19954;-68
2022/08/05 05:31:43;;;;;;;;;;;;;;;23.55;64.80;98727.28;2617542;54;19954;-67
2022/08/05 05:34:14;;;;;;;;;;;;;;;23.84;65.23;98746.28;2618312;39;20299;-67
2022/08/05 05:36:52;;;;;;;;;;;;;;;24.06;63.90;98745.88;2618030;54;19951;-67
2022/08/05 05:39:24;;;;;;;;;;;;;;;24.10;63.44;98736.13;2617750;54;19947;-66
2022/08/05 05:42:02;;;;;;;;;;;;;;;23.98;63.29;98717.59;2617514;54;19938;-67
2022/08/05 05:44:32;;;;;;;;;;;;;;;24.11;62.66;98718.81;2617605;54;19946;-66
2022/08/05 05:47:06;;;;;;;;;;;;;;;24.25;61.88;98713.56;2616725;47;19946;-67
2022/08/05 05:49:49;;;;;;;;;;;;;;;24.36;62.02;98715.09;2617544;54;19946;-68
2022/08/05 05:52:29;;;;;;;;;;;;;;;24.41;61.17;98698.84;2616812;54;19946;-68
2022/08/05 05:55:12;;;;;;;;;;;;;;;24.43;60.45;98692.09;2616912;54;19970;-68
2022/08/05 05:57:42;;;;;;;;;;;;;;;24.39;60.17;98691.03;2617290;54;19974;-68
2022/08/05 06:00:22;;;;;;;;;;;;;;;24.28;60.53;98697.59;2617111;47;19966;-66
2022/08/05 06:03:02;;;;;;;;;;;;;;;24.29;60.85;98699.22;2616788;54;19946;-66
2022/08/05 06:05:52;;;;;;;;;;;;;;;24.26;60.84;98710.59;2617651;54;20153;-66
2022/08/05 06:08:23;;;;;;;;;;;;;;;24.16;61.34;98733.09;2618745;31;20436;-67
2022/08/05 06:11:03;;;;;;;;;;;;;;;24.09;61.37;98727.22;2618253;54;20002;-67
2022/08/05 06:13:34;;;;;;;;;;;;;;;23.98;61.43;98721.09;2618104;54;19994;-67
2022/08/05 06:16:22;;;;;;;;;;;;;;;23.81;62.04;98725.28;2618002;54;19958;-67
2022/08/05 06:19:00;;;;;;;;;;;;;;;23.71;62.86;98728.84;2618418;54;19954;-67
2022/08/05 06:21:33;;;;;;;;;;;;;;;23.76;62.66;98709.09;2617661;54;19939;-67
2022/08/05 06:24:06;;;;;;;;;;;;;;;23.67;63.28;98754.78;2618271;54;19938;-67
2022/08/05 06:26:43;;;;;;;;;;;;;;;23.50;63.52;98757.81;2617292;47;19947;-67
2022/08/05 06:29:20;;;;;;;;;;;;;;;23.40;63.71;98769.47;2618526;54;19939;-68
2022/08/05 06:32:10;;;;;;;;;;;;;;;23.28;63.64;98768.97;2618310;54;19939;-68
2022/08/05 06:34:57;;;;;;;;;;;;;;;23.22;63.85;98773.56;2618221;54;19946;-67
2022/08/05 06:37:27;;;;;;;;;;;;;;;23.19;63.80;98784.94;2617867;39;20346;-68
2022/08/05 06:40:17;;;;;;;;;;;;;;;23.05;64.45;98785.78;2617768;47;19962;-69
2022/08/05 06:42:52;;;;;;;;;;;;;;;23.09;64.28;98795.75;2618017;54;19947;-68
2022/08/05 06:45:22;;;;;;;;;;;;;;;23.12;64.19;98819.47;2618235;54;19946;-67
2022/08/05 06:48:12;;;;;;;;;;;;;;;23.01;64.33;98836.75;2618011;54;20473;-67
2022/08/05 06:51:01;;;;;;;;;;;;;;;22.85;64.90;98821.66;2618223;54;19982;-69
2022/08/05 06:53:37;;;;;;;;;;;;;;;22.79;64.65;98806.56;2617530;54;19946;-66
2022/08/05 06:56:07;;;;;;;;;;;;;;;22.73;65.04;98805.75;2617937;54;20002;-69
2022/08/05 06:58:57;;;;;;;;;;;;;;;22.79;65.38;98817.34;2618154;54;19946;-68
2022/08/05 07:01:28;;;;;;;;;;;;;;;22.82;64.88;98828.41;2618134;54;19946;-68
2022/08/05 07:04:01;;;;;;;;;;;;;;;22.89;64.73;98825.41;2618095;54;19962;-67
2022/08/05 07:06:31;;;;;;;;;;;;;;;22.91;64.81;98836.78;2617345;54;19945;-67
2022/08/05 07:09:01;;;;;;;;;;;;;;;22.98;64.51;98837.28;2618139;54;19946;-68
2022/08/05 07:11:32;;;;;;;;;;;;;;;22.98;64.55;98842.66;2617363;54;20461;-67
2022/08/05 07:17:01;;;;;;;;;;;;;;;22.89;64.84;98830.81;2618419;39;20307;-68
2022/08/05 07:19:52;;;;;;;;;;;;;;;22.86;64.60;98823.25;2618164;31;20409;-68
2022/08/05 07:22:42;;;;;;;;;;;;;;;22.96;64.80;98823.28;2617861;54;19985;-66
2022/08/05 07:25:13;;;;;;;;;;;;;;;23.00;64.98;98821.66;2617854;54;20454;-67
2022/08/05 07:28:03;;;;;;;;;;;;;;;23.04;64.77;98835.41;2618077;54;20033;-67
2022/08/05 07:30:42;;;;;;;;;;;;;;;23.03;65.39;98799.53;2617310;47;19946;-68
2022/08/05 07:33:19;;;;;;;;;;;;;;;23.09;65.10;98817.31;2617846;54;19938;-68
2022/08/05 07:36:05;;;;;;;;;;;;;;;23.17;64.60;98832.94;2617444;54;19970;-69
2022/08/05 07:38:49;;;;;;;;;;;;;;;23.24;64.73;98838.03;2617914;54;19973;-68
2022/08/05 07:41:24;;;;;;;;;;;;;;;23.27;64.65;98831.28;2617942;54;19974;-67
2022/08/05 07:44:13;;;;;;;;;;;;;;;23.39;64.10;98816.41;2618002;54;19973;-68
2022/08/05 07:46:50;;;;;;;;;;;;;;;23.57;63.95;98816.88;2618285;39;20350;-68
2022/08/05 07:49:20;;;;;;;;;;;;;;;23.64;64.05;98810.09;2617368;54;19950;-67
2022/08/05 07:51:49;;;;;;;;;;;;;;;23.80;63.56;98801.91;2619191;54;19946;-68
2022/08/05 07:54:25;;;;;;;;;;;;;;;23.83;63.20;98796.78;2624897;39;20037;-69
2022/08/05 07:57:01;;;;;;;;;;;;;;;23.75;63.11;98813.56;2625003;54;19953;-69
2022/08/05 07:59:51;;;;;;;;;;;;;;;23.79;63.52;98813.81;2624281;54;19942;-67
2022/08/05 08:02:28;;;;;;;;;;;;;;;23.87;62.67;98795.13;2620282;39;20359;-68
2022/08/05 08:05:17;;;;;;;;;;;;;;;23.71;63.14;98797.09;2618149;54;20034;-69
2022/08/05 08:07:47;;;;;;;;;;;;;;;23.80;62.77;98786.56;2618268;39;20307;-68
2022/08/05 08:10:28;;;;;;;;;;;;;;;23.81;63.03;98780.06;2618045;54;19947;-67
2022/08/05 08:12:58;;;;;;;;;;;;;;;23.77;62.97;98789.81;2618182;54;19970;-68
2022/08/05 08:15:29;;;;;;;;;;;;;;;23.84;62.48;98793.00;2618435;54;20379;-67
2022/08/05 08:18:21;;;;;;;;;;;;;;;23.83;62.80;98779.78;2618501;54;19981;-66
2022/08/05 08:20:52;;;;;;;;;;;;;;;23.86;62.91;98787.31;2618012;54;19942;-68
2022/08/05 08:23:31;;;;;;;;;;;;;;;23.95;63.12;98801.84;2617281;47;19959;-67
2022/08/05 08:26:21;;;;;;;;;;;;;;;24.00;62.62;98811.78;2617736;54;19942;-67
2022/08/05 08:28:58;;;;;;;;;;;;;;;24.04;62.90;98826.34;2617765;54;19938;-67
2022/08/05 08:31:47;;;;;;;;;;;;;;;24.17;62.27;98810.34;2617942;54;20026;-67
2022/08/05 08:34:19;;;;;;;;;;;;;;;24.24;61.88;98807.28;2617507;54;19946;-68
2022/08/05 08:37:01;;;;;;;;;;;;;;;24.37;61.82;98798.56;2616968;47;19957;-69
2022/08/05 08:39:33;;;;;;;;;;;;;;;24.33;61.82;98799.38;2618345;54;20042;-67
2022/08/05 08:42:07;;;;;;;;;;;;;;;24.32;61.87;98793.19;2618462;54;19943;-67
2022/08/05 08:44:57;;;;;;;;;;;;;;;24.38;61.60;98802.91;2618627;54;20042;-67
2022/08/05 08:47:47;;;;;;;;;;;;;;;24.59;61.62;98800.81;2617010;46;20454;-66
2022/08/05 08:50:41;;;;;;;;;;;;;;;24.78;61.54;98802.81;2617866;54;19947;-67
2022/08/05 08:53:36;;;;;;;;;;;;;;;24.82;60.51;98801.97;2617890;54;19963;-67
2022/08/05 08:56:12;;;;;;;;;;;;;;;25.03;60.39;98791.75;2617918;54;19946;-68
2022/08/05 08:58:42;;;;;;;;;;;;;;;25.25;59.32;98801.25;2618174;39;20354;-67
2022/08/05 09:01:16;;;;;;;;;;;;;;;25.35;59.31;98801.13;2617644;39;20326;-68
2022/08/05 09:03:48;;;;;;;;;;;;;;;25.45;58.34;98806.41;2617862;54;19950;-66
2022/08/05 09:06:29;;;;;;;;;;;;;;;25.42;58.30;98802.38;2617466;54;19947;-68
2022/08/05 09:09:00;;;;;;;;;;;;;;;25.53;58.72;98818.50;2617526;54;20018;-69
2022/08/05 09:11:30;;;;;;;;;;;;;;;25.77;58.46;98830.13;2617742;54;19969;-67
2022/08/05 09:14:20;;;;;;;;;;;;;;;25.94;57.92;98835.03;2619527;39;20346;-68
2022/08/05 09:17:11;;;;;;;;;;;;;;;26.12;57.35;98834.22;2618934;54;19973;-68
2022/08/05 09:20:01;;;;;;;;;;;;;;;26.27;57.83;98841.31;2618652;54;20443;-68
2022/08/05 09:22:48;;;;;;;;;;;;;;;26.39;56.70;98840.88;2618192;39;20342;-68
2022/08/05 09:25:22;;;;;;;;;;;;;;;26.44;56.85;98840.78;2617311;54;20439;-68
2022/08/05 09:28:14;;;;;;;;;;;;;;;26.56;55.77;98832.22;2620548;54;19954;-69
2022/08/05 09:30:56;;;;;;;;;;;;;;;26.62;54.04;98828.31;2620259;54;19990;-69
2022/08/05 09:33:26;;;;;;;;;;;;;;;26.61;53.31;98816.66;2620728;39;20330;-69
2022/08/05 09:36:04;;;;;;;;;;;;;;;26.80;52.76;98816.59;2618241;54;19939;-67
2022/08/05 09:38:57;;;;;;;;;;;;;;;26.73;52.94;98813.47;2617544;54;19950;-67
2022/08/05 09:41:29;;;;;;;;;;;;;;;26.82;53.19;98821.72;2618592;54;19973;-67
2022/08/05 09:44:06;;;;;;;;;;;;;;;26.83;52.47;98836.91;2618656;54;20453;-68
2022/08/05 09:46:39;;;;;;;;;;;;;;;26.62;52.30;98839.97;2618529;54;19946;-67
2022/08/05 09:49:26;;;;;;;;;;;;;;;26.44;52.74;98846.19;2618763;54;19953;-67
2022/08/05 09:52:26;;;;;;;;;;;;;;;26.33;53.13;98859.13;2619297;31;20454;-67
2022/08/05 09:54:56;;;;;;;;;;;;;;;26.25;53.82;98872.50;2618686;54;19939;-68
2022/08/05 09:57:36;;;;;;;;;;;;;;;26.18;53.38;98865.56;2618464;54;19938;-68
2022/08/05 10:00:12;;;;;;;;;;;;;;;26.21;53.57;98856.06;2617956;54;19953;-68
2022/08/05 10:02:43;;;;;;;;;;;;;;;26.23;53.55;98848.41;2618881;54;19938;-67
2022/08/05 10:05:16;;;;;;;;;;;;;;;26.12;53.44;98849.66;2618209;54;19994;-67
2022/08/05 10:07:53;;;;;;;;;;;;;;;26.05;53.79;98862.78;2618449;54;19938;-67
2022/08/05 10:10:48;;;;;;;;;;;;;;;25.79;54.38;98855.00;2618006;54;20450;-67
2022/08/05 10:13:34;;;;;;;;;;;;;;;25.56;54.71;98847.72;2618633;54;20034;-67
2022/08/05 10:16:33;;;;;;;;;;;;;;;25.52;55.36;98835.84;2616764;54;19969;-66
2022/08/05 10:19:12;;;;;;;;;;;;;;;25.39;55.71;98831.91;2619219;54;19947;-66
2022/08/05 11:42:17;;;;;;;;;;;;;;;26.82;51.31;98911.22;2605267;46;20274;-68
2022/08/05 11:44:49;;;;;;;;;;;;;;;27.03;50.79;98914.41;2617426;47;19946;-69
2022/08/05 11:47:23;;;;;;;;;;;;;;;27.03;50.50;98912.50;2618195;54;19946;-69
2022/08/05 11:50:12;;;;;;;;;;;;;;;26.96;49.90;98909.34;2617803;51;19947;-69
2022/08/05 11:52:42;;;;;;;;;;;;;;;26.89;50.54;98908.94;2618224;54;19946;-68
2022/08/05 11:55:17;;;;;;;;;;;;;;;27.00;50.25;98910.38;2617701;47;20481;-69
2022/08/05 11:57:50;;;;;;;;;;;;;;;26.92;49.66;98920.00;2618313;54;20070;-70
2022/08/05 12:00:40;;;;;;;;;;;;;;;26.93;49.40;98926.22;2618038;54;19942;-70
2022/08/05 12:03:19;;;;;;;;;;;;;;;27.20;49.69;98925.53;2618518;54;19947;-68
2022/08/05 12:06:02;;;;;;;;;;;;;;;27.32;48.49;98925.84;2619167;54;19961;-67
2022/08/05 12:08:34;;;;;;;;;;;;;;;27.34;48.61;98922.81;2619362;54;19939;-67
2022/08/05 12:11:09;;;;;;;;;;;;;;;27.60;48.91;98931.31;2618790;54;19975;-68
2022/08/05 12:13:58;;;;;;;;;;;;;;;27.50;47.82;98924.13;2618249;54;20422;-67
2022/08/05 12:16:34;;;;;;;;;;;;;;;27.44;48.05;98938.94;2617985;54;19975;-67
2022/08/05 12:19:07;;;;;;;;;;;;;;;27.29;48.54;98939.19;2617978;39;20329;-66
2022/08/05 12:21:43;;;;;;;;;;;;;;;26.87;48.58;98949.94;2617543;54;19957;-68
2022/08/05 12:24:16;;;;;;;;;;;;;;;26.75;49.12;98957.72;2618254;54;19947;-68
2022/08/05 12:26:46;;;;;;;;;;;;;;;26.49;50.04;98959.19;2619260;54;19953;-68
2022/08/05 12:29:20;;;;;;;;;;;;;;;26.58;49.84;98960.94;2620312;54;19950;-67
2022/08/05 12:31:52;;;;;;;;;;;;;;;26.79;50.10;98976.91;2621216;54;19939;-66
2022/08/05 12:34:25;;;;;;;;;;;;;;;26.91;49.71;98963.69;2619846;54;19963;-67
2022/08/05 12:36:55;;;;;;;;;;;;;;;27.05;49.48;98972.69;2618383;54;19939;-67
2022/08/05 12:39:25;;;;;;;;;;;;;;;26.99;49.40;98971.16;2618388;54;19947;-66
2022/08/05 12:42:02;;;;;;;;;;;;;;;26.93;49.16;98973.13;2618510;54;19954;-67
2022/08/05 12:44:34;;;;;;;;;;;;;;;26.77;49.42;98968.25;2618053;54;19954;-68
2022/08/05 12:47:04;;;;;;;;;;;;;;;26.73;49.91;98968.03;2617669;54;20478;-67
2022/08/05 12:49:41;;;;;;;;;;;;;;;26.69;49.67;98969.72;2617920;54;19947;-68
2022/08/05 12:52:30;;;;;;;;;;;;;;;26.79;49.25;98966.06;2617834;54;19946;-69
2022/08/05 12:55:19;;;;;;;;;;;;;;;26.89;49.08;98955.03;2618044;54;19947;-70
2022/08/05 12:57:51;;;;;;;;;;;;;;;26.96;48.82;98957.38;2617695;54;20438;-68
2022/08/05 13:00:46;;;;;;;;;;;;;;;27.09;48.46;98951.19;2617853;54;19967;-69
2022/08/05 13:03:36;;;;;;;;;;;;;;;27.39;48.09;98949.84;2618104;54;20030;-69
2022/08/05 13:06:14;;;;;;;;;;;;;;;27.77;47.80;98942.38;2617652;54;19946;-69
2022/08/05 13:08:44;;;;;;;;;;;;;;;27.94;47.15;98927.38;2618082;54;20012;-69
2022/08/05 13:11:20;;;;;;;;;;;;;;;28.24;46.49;98925.91;2617880;54;19989;-69
2022/08/05 13:14:27;;;;;;;;;;;;;;;28.19;46.11;98928.75;2618072;54;20434;-68
2022/08/05 13:17:09;;;;;;;;;;;;;;;28.34;46.15;98921.06;2617530;54;20027;-69
2022/08/05 13:19:40;;;;;;;;;;;;;;;28.14;45.95;98908.72;2618717;54;19955;-69
2022/08/05 13:22:22;;;;;;;;;;;;;;;28.08;45.69;98906.41;2619378;54;19950;-68
2022/08/05 13:24:58;;;;;;;;;;;;;;;28.12;45.12;98901.97;2619812;39;20330;-70
2022/08/05 13:27:34;;;;;;;;;;;;;;;28.24;44.74;98902.25;2619575;54;19950;-68
2022/08/05 13:30:08;;;;;;;;;;;;;;;28.37;44.77;98912.31;2619478;47;19939;-69
2022/08/05 13:33:00;;;;;;;;;;;;;;;28.55;44.59;98898.88;2620076;31;20418;-68
2022/08/05 13:35:31;;;;;;;;;;;;;;;28.70;44.46;98900.38;2620685;54;19938;-69
2022/08/05 13:38:19;;;;;;;;;;;;;;;28.75;44.34;98911.97;2620428;54;19947;-69
2022/08/05 13:41:02;;;;;;;;;;;;;;;28.68;43.59;98908.06;2619895;54;20038;-70
2022/08/05 13:43:32;;;;;;;;;;;;;;;28.57;43.03;98915.66;2619932;54;19947;-69
2022/08/05 13:46:22;;;;;;;;;;;;;;;28.42;42.98;98908.69;2619499;54;20476;-69
2022/08/05 13:49:14;;;;;;;;;;;;;;;28.31;42.94;98905.34;2620212;54;20043;-69
2022/08/05 13:51:43;;;;;;;;;;;;;;;28.37;43.02;98901.44;2620246;54;19939;-68
2022/08/05 13:54:15;;;;;;;;;;;;;;;28.63;42.64;98898.91;2618806;54;19946;-68
2022/08/05 13:56:45;;;;;;;;;;;;;;;28.72;41.93;98898.97;2619335;54;19939;-68
2022/08/05 13:59:20;;;;;;;;;;;;;;;28.87;41.55;98895.09;2619853;54;19951;-67
2022/08/05 14:01:52;;;;;;;;;;;;;;;28.82;41.30;98895.19;2619274;54;19997;-68
2022/08/05 14:07:19;;;;;;;;;;;;;;;28.41;41.85;98903.53;2618992;47;20454;-68
2022/08/05 14:10:09;;;;;;;;;;;;;;;28.34;42.05;98893.06;2618909;54;19973;-68
2022/08/05 14:12:38;;;;;;;;;;;;;;;28.42;42.03;98894.28;2618282;54;19967;-68
2022/08/05 14:15:11;;;;;;;;;;;;;;;28.35;42.17;98905.56;2618499;54;20037;-68
2022/08/05 14:18:01;;;;;;;;;;;;;;;28.37;42.76;98906.06;2619377;39;20352;-69
2022/08/05 14:20:34;;;;;;;;;;;;;;;28.22;42.69;98898.25;2618708;54;19962;-68
2022/08/05 14:23:05;;;;;;;;;;;;;;;28.17;42.50;98909.22;2618041;54;19950;-69
2022/08/05 14:25:35;;;;;;;;;;;;;;;27.97;42.76;98903.13;2618607;54;19947;-68
2022/08/05 14:28:13;;;;;;;;;;;;;;;27.82;42.38;98911.59;2618012;47;19950;-68
2022/08/05 14:30:55;;;;;;;;;;;;;;;27.74;43.00;98906.88;2619668;54;19977;-69
2022/08/05 14:33:25;;;;;;;;;;;;;;;27.87;43.04;98906.84;2619214;54;20337;-70
2022/08/05 14:35:57;;;;;;;;;;;;;;;27.85;43.02;98913.72;2618504;54;19939;-69
2022/08/05 14:38:26;;;;;;;;;;;;;;;27.87;43.71;98917.72;2618533;54;19938;-69
2022/08/05 14:41:05;;;;;;;;;;;;;;;27.85;43.75;98921.88;2618689;54;19946;-67
2022/08/05 14:43:37;;;;;;;;;;;;;;;27.72;44.20;98920.75;2618895;54;19947;-68
2022/08/05 14:46:26;;;;;;;;;;;;;;;27.67;44.84;98912.66;2617943;46;19947;-68
2022/08/05 14:48:58;;;;;;;;;;;;;;;27.47;45.30;98910.34;2622519;54;19955;-67
2022/08/05 14:51:38;;;;;;;;;;;;;;;27.47;45.15;98924.72;2623118;54;19993;-69
2022/08/05 14:54:12;;;;;;;;;;;;;;;27.39;45.40;98923.53;2623885;47;19939;-68
2022/08/05 14:56:58;;;;;;;;;;;;;;;27.30;45.86;98916.38;2623734;54;19946;-68
2022/08/05 14:59:28;;;;;;;;;;;;;;;27.23;45.96;98918.66;2624069;54;19953;-67
2022/08/05 15:02:04;;;;;;;;;;;;;;;27.20;46.04;98922.81;2621954;39;20354;-67
2022/08/05 15:04:44;;;;;;;;;;;;;;;27.09;46.57;98929.47;2618750;54;19969;-68
2022/08/05 15:07:18;;;;;;;;;;;;;;;27.00;47.31;98942.94;2617819;54;19938;-69
2022/08/05 15:10:08;;;;;;;;;;;;;;;26.66;48.58;98956.78;2618422;54;19939;-68